Time;durP1;ratioP1;P1;durP2;ratioP2;P2;SDS_P1;SDS_P2;PMS_P1;PMS_P2;Temp;Humidity;BMP_temperature;BMP_pressure;BME280_temperature;BME280_humidity;BME280_pressure;Samples;Min_cycle;Max_cycle;Signal;HPM_P1;HPM_P2
2022/04/30 00:00:58;;;;;;;21.25;13.55;;;;;;;;;;4987344;28;20062;-77
2022/04/30 00:03:28;;;;;;;16.92;13.75;;;;;;;;;;4969625;28;20018;-77
2022/04/30 00:05:54;;;;;;;18.73;14.00;;;;;;;;;;4987296;28;20369;-77
2022/04/30 00:08:20;;;;;;;19.67;14.20;;;;;;;;;;4987411;28;20046;-77
2022/04/30 00:10:48;;;;;;;21.58;13.43;;;;;;;;;;4987518;28;20026;-77
2022/04/30 00:13:14;;;;;;;18.17;13.23;;;;;;;;;;4987309;28;20023;-77
2022/04/30 00:15:40;;;;;;;17.67;12.07;;;;;;;;;;4972346;28;20035;-78
2022/04/30 00:18:08;;;;;;;18.08;13.15;;;;;;;;;;4972279;28;20051;-80
2022/04/30 00:20:36;;;;;;;17.98;12.50;;;;;;;;;;4971222;28;20082;-77
2022/04/30 00:23:02;;;;;;;19.08;12.25;;;;;;;;;;4989758;28;20030;-79
2022/04/30 00:25:28;;;;;;;18.77;13.90;;;;;;;;;;4991042;28;20022;-80
2022/04/30 00:27:54;;;;;;;17.45;12.13;;;;;;;;;;4975816;28;20069;-79
2022/04/30 00:30:20;;;;;;;15.40;12.32;;;;;;;;;;4974687;28;20022;-79
2022/04/30 00:32:48;;;;;;;19.75;12.48;;;;;;;;;;4975939;28;20023;-79
2022/04/30 00:35:14;;;;;;;23.58;13.95;;;;;;;;;;4990072;28;20067;-78
2022/04/30 00:37:40;;;;;;;21.15;12.98;;;;;;;;;;4990549;28;20019;-78
2022/04/30 00:40:06;;;;;;;18.92;14.30;;;;;;;;;;4975685;28;20038;-78
2022/04/30 00:42:33;;;;;;;19.52;13.73;;;;;;;;;;4974952;28;20027;-78
2022/04/30 00:44:59;;;;;;;18.45;13.63;;;;;;;;;;4974905;28;20022;-78
2022/04/30 00:47:26;;;;;;;18.13;13.38;;;;;;;;;;4976573;28;20202;-78
2022/04/30 00:49:53;;;;;;;17.45;13.80;;;;;;;;;;4974984;28;20030;-77
2022/04/30 00:52:20;;;;;;;17.90;14.13;;;;;;;;;;4974825;28;20421;-77
2022/04/30 00:54:49;;;;;;;19.80;14.18;;;;;;;;;;4974508;28;20041;-77
2022/04/30 00:57:18;;;;;;;23.70;14.95;;;;;;;;;;4974515;28;20031;-77
2022/04/30 00:59:44;;;;;;;20.42;15.15;;;;;;;;;;4974421;28;20019;-78
2022/04/30 01:02:11;;;;;;;28.17;14.73;;;;;;;;;;4974307;28;20445;-77
2022/04/30 01:04:37;;;;;;;23.15;14.95;;;;;;;;;;4974382;28;20050;-78
2022/04/30 01:07:06;;;;;;;20.52;14.80;;;;;;;;;;4975595;28;20023;-78
2022/04/30 01:09:33;;;;;;;23.25;16.42;;;;;;;;;;4974206;28;20019;-78
2022/04/30 01:12:06;;;;;;;18.90;14.68;;;;;;;;;;4975464;28;20023;-78
2022/04/30 01:14:32;;;;;;;18.15;13.43;;;;;;;;;;4974182;28;20106;-79
2022/04/30 01:17:04;;;;;;;19.55;14.30;;;;;;;;;;4973928;28;20058;-78
2022/04/30 01:19:35;;;;;;;21.83;15.98;;;;;;;;;;4974207;28;20057;-78
2022/04/30 01:22:03;;;;;;;20.58;14.32;;;;;;;;;;4974155;28;20486;-77
2022/04/30 01:24:30;;;;;;;18.08;13.80;;;;;;;;;;4975296;28;20030;-77
2022/04/30 01:26:58;;;;;;;20.52;12.98;;;;;;;;;;4975202;28;20069;-78
2022/04/30 01:29:25;;;;;;;19.00;14.32;;;;;;;;;;4974032;28;20027;-79
2022/04/30 01:37:22;;;;;;;23.45;15.55;;;;;;;;;;4975051;28;20050;-78
2022/04/30 01:39:52;;;;;;;26.58;19.80;;;;;;;;;;4973818;28;20030;-78
2022/04/30 01:42:18;;;;;;;26.45;18.05;;;;;;;;;;4973824;28;20023;-78
2022/04/30 01:44:46;;;;;;;20.48;16.30;;;;;;;;;;4973643;28;20026;-79
2022/04/30 01:47:13;;;;;;;17.83;12.77;;;;;;;;;;4974826;28;20019;-78
2022/04/30 01:49:39;;;;;;;16.77;12.25;;;;;;;;;;4974750;28;20065;-78
2022/04/30 01:52:09;;;;;;;18.92;13.35;;;;;;;;;;4973523;28;20061;-78
2022/04/30 01:54:35;;;;;;;18.15;13.18;;;;;;;;;;4973468;28;20015;-79
2022/04/30 01:57:01;;;;;;;18.58;13.90;;;;;;;;;;4974625;28;20042;-78
2022/04/30 01:59:28;;;;;;;19.80;12.45;;;;;;;;;;4973450;28;20034;-79
2022/04/30 02:01:55;;;;;;;18.75;13.50;;;;;;;;;;4975028;28;20038;-77
2022/04/30 02:04:21;;;;;;;21.13;14.00;;;;;;;;;;4973275;28;20165;-79
2022/04/30 02:06:48;;;;;;;21.65;15.57;;;;;;;;;;4974496;28;20077;-77
2022/04/30 02:09:14;;;;;;;20.88;15.80;;;;;;;;;;4973205;28;20026;-78
2022/04/30 02:11:42;;;;;;;23.75;16.15;;;;;;;;;;4974488;28;20470;-78
2022/04/30 02:14:08;;;;;;;22.77;16.17;;;;;;;;;;4974378;28;20027;-77
2022/04/30 02:16:35;;;;;;;23.63;17.35;;;;;;;;;;4972614;28;20054;-76
2022/04/30 02:19:02;;;;;;;24.35;17.17;;;;;;;;;;4974696;28;20022;-78
2022/04/30 02:21:29;;;;;;;24.65;16.45;;;;;;;;;;4973027;28;20144;-78
2022/04/30 02:23:58;;;;;;;25.35;17.25;;;;;;;;;;4974392;28;20369;-77
2022/04/30 02:26:27;;;;;;;22.85;17.17;;;;;;;;;;4973092;28;20426;-77
2022/04/30 02:28:55;;;;;;;25.55;17.15;;;;;;;;;;4974155;28;20022;-77
2022/04/30 02:31:23;;;;;;;24.98;17.38;;;;;;;;;;4974172;28;20045;-77
2022/04/30 02:33:49;;;;;;;25.35;17.38;;;;;;;;;;4973707;28;20019;-78
2022/04/30 02:36:15;;;;;;;33.60;20.52;;;;;;;;;;4972634;28;20129;-79
2022/04/30 02:38:42;;;;;;;34.03;19.85;;;;;;;;;;4972826;28;20029;-78
2022/04/30 02:41:08;;;;;;;23.25;17.83;;;;;;;;;;4972701;28;20023;-78
2022/04/30 02:43:34;;;;;;;26.35;19.33;;;;;;;;;;4972699;28;20118;-78
2022/04/30 02:46:00;;;;;;;28.13;18.00;;;;;;;;;;4972202;28;20077;-78
2022/04/30 02:48:26;;;;;;;25.15;18.92;;;;;;;;;;4973812;28;20076;-77
2022/04/30 02:50:58;;;;;;;30.77;17.27;;;;;;;;;;4972456;28;20441;-77
2022/04/30 02:53:24;;;;;;;24.08;16.13;;;;;;;;;;4973857;28;20097;-77
2022/04/30 02:55:50;;;;;;;24.83;17.02;;;;;;;;;;4973681;28;20053;-78
2022/04/30 03:01:00;;;;;;;23.08;16.45;;;;;;;;;;4973714;28;20165;-78
2022/04/30 03:03:29;;;;;;;26.95;18.33;;;;;;;;;;4971918;28;20023;-77
2022/04/30 03:05:56;;;;;;;24.98;17.70;;;;;;;;;;4973584;28;20101;-78
2022/04/30 03:08:24;;;;;;;25.25;18.02;;;;;;;;;;4971569;28;20493;-77
2022/04/30 03:10:53;;;;;;;39.20;19.15;;;;;;;;;;4987686;28;20027;-77
2022/04/30 03:13:20;;;;;;;25.98;18.33;;;;;;;;;;4972786;28;20029;-77
2022/04/30 03:15:47;;;;;;;22.58;16.27;;;;;;;;;;4972708;28;20034;-79
2022/04/30 03:23:51;;;;;;;24.05;17.60;;;;;;;;;;4973727;28;20038;-80
2022/04/30 03:26:19;;;;;;;24.60;17.58;;;;;;;;;;4988634;28;20055;-78
2022/04/30 03:28:46;;;;;;;28.50;18.08;;;;;;;;;;4988198;28;20022;-78
2022/04/30 03:31:15;;;;;;;24.17;17.67;;;;;;;;;;4988414;28;20027;-79
2022/04/30 03:33:44;;;;;;;35.75;19.02;;;;;;;;;;4988098;28;20019;-81
2022/04/30 03:36:15;;;;;;;32.58;22.92;;;;;;;;;;4972225;28;20035;-80
2022/04/30 03:38:41;;;;;;;31.00;21.48;;;;;;;;;;4972123;28;20381;-80
2022/04/30 03:41:07;;;;;;;30.50;21.40;;;;;;;;;;4972030;28;20019;-78
2022/04/30 03:43:33;;;;;;;30.35;21.00;;;;;;;;;;4971633;28;20118;-79
2022/04/30 03:46:00;;;;;;;29.27;19.95;;;;;;;;;;4971691;28;20027;-79
2022/04/30 03:48:26;;;;;;;28.73;19.70;;;;;;;;;;4971984;28;20521;-80
2022/04/30 03:50:52;;;;;;;24.50;18.10;;;;;;;;;;4971989;28;20061;-81
2022/04/30 03:53:19;;;;;;;25.88;16.83;;;;;;;;;;4972084;28;20023;-79
2022/04/30 03:55:45;;;;;;;28.95;19.50;;;;;;;;;;4971913;28;20038;-79
2022/04/30 03:58:11;;;;;;;33.67;21.63;;;;;;;;;;4974648;28;20031;-80
2022/04/30 04:00:37;;;;;;;38.05;23.95;;;;;;;;;;4976679;28;20023;-79
2022/04/30 04:03:03;;;;;;;35.25;22.33;;;;;;;;;;4975271;28;20078;-80
2022/04/30 04:05:29;;;;;;;32.83;21.98;;;;;;;;;;4975700;28;20058;-79
2022/04/30 04:07:57;;;;;;;32.97;22.20;;;;;;;;;;4976691;28;20046;-79
2022/04/30 04:10:23;;;;;;;31.15;18.65;;;;;;;;;;4976503;28;20019;-79
2022/04/30 04:12:50;;;;;;;26.20;18.55;;;;;;;;;;4975616;28;20027;-80
2022/04/30 04:18:01;;;;;;;23.23;13.88;;;;;;;;;;4976882;28;20095;-79
2022/04/30 04:20:27;;;;;;;22.25;13.27;;;;;;;;;;4976218;28;20026;-78
2022/04/30 04:22:54;;;;;;;23.13;15.88;;;;;;;;;;4975357;28;20038;-78
2022/04/30 04:28:05;;;;;;;26.27;13.90;;;;;;;;;;4976118;28;20030;-79
2022/04/30 04:30:32;;;;;;;21.98;13.77;;;;;;;;;;4974915;28;20485;-79
2022/04/30 04:32:58;;;;;;;17.63;11.80;;;;;;;;;;4976558;28;20490;-78
2022/04/30 04:35:25;;;;;;;18.50;11.15;;;;;;;;;;4974859;28;20046;-79
2022/04/30 04:37:51;;;;;;;19.02;13.98;;;;;;;;;;4974843;28;20023;-79
2022/04/30 04:40:18;;;;;;;18.25;12.25;;;;;;;;;;4974783;28;20050;-79
2022/04/30 04:42:44;;;;;;;19.70;11.98;;;;;;;;;;4974725;28;20513;-79
2022/04/30 04:45:11;;;;;;;19.58;12.48;;;;;;;;;;4974895;28;20034;-81
2022/04/30 04:47:40;;;;;;;19.17;13.57;;;;;;;;;;4976097;28;20027;-79
2022/04/30 04:50:08;;;;;;;15.93;11.63;;;;;;;;;;4975787;28;20057;-79
2022/04/30 04:52:34;;;;;;;19.98;13.60;;;;;;;;;;4974533;28;20019;-79
2022/04/30 04:55:00;;;;;;;18.42;13.10;;;;;;;;;;4975441;28;20030;-79
2022/04/30 04:57:26;;;;;;;22.38;13.38;;;;;;;;;;4974500;28;20054;-79
2022/04/30 04:59:54;;;;;;;17.83;13.93;;;;;;;;;;4975538;28;20042;-78
2022/04/30 05:02:20;;;;;;;19.17;13.15;;;;;;;;;;4974457;28;20054;-79
2022/04/30 05:04:46;;;;;;;20.27;14.57;;;;;;;;;;4974446;28;20074;-79
2022/04/30 05:07:12;;;;;;;20.73;15.32;;;;;;;;;;4975252;28;20023;-78
2022/04/30 05:09:38;;;;;;;21.70;16.02;;;;;;;;;;4973901;28;20080;-79
2022/04/30 05:12:05;;;;;;;20.00;15.25;;;;;;;;;;4974548;28;20023;-80
2022/04/30 05:14:34;;;;;;;18.13;13.30;;;;;;;;;;4975549;28;20513;-78
2022/04/30 05:17:01;;;;;;;16.88;13.25;;;;;;;;;;4973875;28;20104;-78
2022/04/30 05:19:27;;;;;;;19.55;13.13;;;;;;;;;;4975324;28;20022;-77
2022/04/30 05:21:53;;;;;;;17.38;12.88;;;;;;;;;;4974975;28;20015;-78
2022/04/30 05:24:19;;;;;;;19.63;13.18;;;;;;;;;;4973965;28;20023;-80
2022/04/30 05:26:47;;;;;;;23.30;13.82;;;;;;;;;;4975251;28;20113;-76
2022/04/30 05:29:13;;;;;;;18.88;14.82;;;;;;;;;;4972928;28;20023;-77
2022/04/30 05:31:39;;;;;;;18.65;13.45;;;;;;;;;;4974742;28;20019;-77
2022/04/30 05:34:05;;;;;;;18.98;13.60;;;;;;;;;;4975124;28;20031;-77
2022/04/30 05:36:31;;;;;;;20.45;14.05;;;;;;;;;;4974532;28;20494;-78
2022/04/30 05:38:59;;;;;;;19.33;13.38;;;;;;;;;;4989898;28;20469;-76
2022/04/30 05:41:25;;;;;;;19.42;13.90;;;;;;;;;;4975089;28;20046;-77
2022/04/30 05:43:51;;;;;;;25.13;18.08;;;;;;;;;;4989931;28;20027;-77
2022/04/30 05:46:17;;;;;;;23.40;14.07;;;;;;;;;;4974590;28;20023;-77
2022/04/30 05:48:43;;;;;;;21.38;13.75;;;;;;;;;;4974611;28;20053;-78
2022/04/30 05:51:09;;;;;;;22.25;15.02;;;;;;;;;;4989905;28;20023;-77
2022/04/30 05:53:35;;;;;;;22.83;13.77;;;;;;;;;;4974719;28;20488;-77
2022/04/30 05:56:01;;;;;;;22.45;13.48;;;;;;;;;;4974490;28;20138;-77
2022/04/30 05:58:27;;;;;;;21.30;14.50;;;;;;;;;;4974498;28;20066;-78
2022/04/30 06:00:53;;;;;;;18.27;13.80;;;;;;;;;;4975150;28;20101;-79
2022/04/30 06:03:19;;;;;;;21.52;14.65;;;;;;;;;;4989309;28;20034;-78
2022/04/30 06:05:45;;;;;;;23.38;14.60;;;;;;;;;;4974208;28;20015;-78
2022/04/30 06:08:11;;;;;;;21.98;14.85;;;;;;;;;;4974008;28;20065;-77
2022/04/30 06:10:37;;;;;;;24.58;14.95;;;;;;;;;;4974088;28;20379;-77
2022/04/30 06:13:04;;;;;;;22.02;14.82;;;;;;;;;;4974045;28;20105;-77
2022/04/30 06:15:30;;;;;;;20.15;14.77;;;;;;;;;;4974201;28;20043;-75
2022/04/30 06:17:56;;;;;;;25.70;16.77;;;;;;;;;;4973951;28;20055;-77
2022/04/30 06:20:22;;;;;;;21.10;14.52;;;;;;;;;;4973418;28;20031;-76
2022/04/30 06:22:48;;;;;;;23.55;16.63;;;;;;;;;;4988047;28;20480;-76
2022/04/30 06:25:14;;;;;;;25.70;16.38;;;;;;;;;;4973355;28;20029;-75
2022/04/30 06:27:41;;;;;;;23.58;16.40;;;;;;;;;;4973356;28;20101;-75
2022/04/30 06:30:08;;;;;;;19.73;15.77;;;;;;;;;;4973091;28;20078;-76
2022/04/30 06:32:34;;;;;;;29.30;17.23;;;;;;;;;;4973041;28;20027;-75
2022/04/30 06:35:02;;;;;;;35.42;24.20;;;;;;;;;;4971971;28;20403;-75
2022/04/30 06:37:28;;;;;;;31.30;19.58;;;;;;;;;;4971761;28;20042;-75
2022/04/30 06:39:54;;;;;;;26.73;19.25;;;;;;;;;;4972849;28;20042;-75
2022/04/30 06:42:20;;;;;;;23.70;17.25;;;;;;;;;;4972764;28;20022;-76
2022/04/30 06:44:47;;;;;;;26.10;17.50;;;;;;;;;;4973064;28;20034;-75
2022/04/30 06:47:13;;;;;;;19.30;15.18;;;;;;;;;;4970685;28;20019;-75
2022/04/30 06:49:40;;;;;;;24.88;17.92;;;;;;;;;;4987885;28;20023;-75
2022/04/30 06:52:06;;;;;;;23.98;16.70;;;;;;;;;;4987694;28;20018;-75
2022/04/30 06:57:20;;;;;;;30.45;20.27;;;;;;;;;;4980643;28;20045;-75
2022/04/30 06:59:51;;;;;;;21.13;16.70;;;;;;;;;;4982576;28;20406;-75
2022/04/30 07:02:23;;;;;;;41.85;31.13;;;;;;;;;;4981815;28;20042;-75
2022/04/30 07:04:52;;;;;;;57.47;38.70;;;;;;;;;;4987718;28;20026;-75
2022/04/30 07:07:19;;;;;;;28.42;21.13;;;;;;;;;;4969037;28;20042;-75
2022/04/30 07:09:45;;;;;;;22.05;16.45;;;;;;;;;;4972159;28;20086;-76
2022/04/30 07:12:13;;;;;;;28.77;17.38;;;;;;;;;;4972680;28;20027;-76
2022/04/30 07:14:40;;;;;;;22.92;16.55;;;;;;;;;;4971139;28;20107;-76
2022/04/30 07:17:11;;;;;;;18.83;15.23;;;;;;;;;;4972484;28;20055;-76
2022/04/30 07:19:37;;;;;;;20.42;15.00;;;;;;;;;;4972237;28;20431;-75
2022/04/30 07:22:04;;;;;;;23.73;17.65;;;;;;;;;;4970582;28;20397;-78
2022/04/30 07:24:33;;;;;;;23.92;14.82;;;;;;;;;;4971507;28;20015;-75
2022/04/30 07:27:00;;;;;;;23.02;17.10;;;;;;;;;;4972500;28;20093;-78
2022/04/30 07:29:26;;;;;;;19.30;15.50;;;;;;;;;;4971616;28;20026;-79
2022/04/30 07:31:52;;;;;;;25.10;16.00;;;;;;;;;;4970523;28;20019;-79
2022/04/30 07:34:18;;;;;;;20.85;15.65;;;;;;;;;;4971729;28;20027;-80
2022/04/30 07:36:44;;;;;;;21.63;15.70;;;;;;;;;;4972732;28;20066;-80
2022/04/30 07:39:11;;;;;;;18.65;13.95;;;;;;;;;;4973197;28;20023;-78
2022/04/30 07:41:37;;;;;;;20.95;15.32;;;;;;;;;;4972790;28;20122;-78
2022/04/30 07:44:03;;;;;;;24.80;17.05;;;;;;;;;;4972517;28;20389;-78
2022/04/30 07:46:29;;;;;;;19.27;14.02;;;;;;;;;;4971530;28;20467;-77
2022/04/30 07:48:55;;;;;;;16.73;13.13;;;;;;;;;;4972917;28;20085;-78
2022/04/30 07:52:03;;;;;;;20.10;13.88;;;;;;;;;;4971633;28;20130;-77
2022/04/30 07:54:10;;;;;;;19.65;13.82;;;;;;;;;;4964375;28;20027;-75
2022/04/30 07:56:37;;;;;;;22.63;13.80;;;;;;;;;;4972595;28;20123;-77
2022/04/30 07:59:03;;;;;;;19.95;14.18;;;;;;;;;;4969904;28;20631;-74
2022/04/30 08:01:29;;;;;;;16.88;13.88;;;;;;;;;;4987138;28;20038;-75
2022/04/30 08:03:55;;;;;;;22.80;13.95;;;;;;;;;;4972297;28;20067;-78
2022/04/30 08:06:21;;;;;;;23.42;15.07;;;;;;;;;;4972277;28;20023;-76
2022/04/30 08:08:47;;;;;;;17.58;13.45;;;;;;;;;;4971002;28;20030;-78
2022/04/30 08:11:13;;;;;;;18.70;14.18;;;;;;;;;;4971374;28;20029;-78
2022/04/30 08:13:39;;;;;;;19.30;13.57;;;;;;;;;;4972667;28;20019;-77
2022/04/30 08:16:09;;;;;;;46.38;34.72;;;;;;;;;;4970325;28;20059;-76
2022/04/30 08:18:36;;;;;;;20.98;16.50;;;;;;;;;;4969886;28;20093;-78
2022/04/30 08:21:02;;;;;;;20.10;14.75;;;;;;;;;;4971021;28;20027;-78
2022/04/30 08:23:28;;;;;;;20.38;16.25;;;;;;;;;;4972426;28;20026;-78
2022/04/30 08:25:54;;;;;;;19.25;15.60;;;;;;;;;;4972586;28;20030;-78
2022/04/30 08:28:20;;;;;;;19.02;13.70;;;;;;;;;;4972199;28;20037;-78
2022/04/30 08:30:46;;;;;;;17.50;13.95;;;;;;;;;;4970703;28;20019;-78
2022/04/30 08:33:12;;;;;;;18.33;15.00;;;;;;;;;;4971592;28;20429;-77
2022/04/30 08:35:38;;;;;;;14.13;11.70;;;;;;;;;;4971937;28;20034;-79
2022/04/30 08:38:04;;;;;;;18.02;11.43;;;;;;;;;;4971137;28;20023;-77
2022/04/30 08:40:30;;;;;;;11.65;8.75;;;;;;;;;;4970338;28;20027;-76
2022/04/30 08:43:06;;;;;;;10.00;7.38;;;;;;;;;;4970186;28;20035;-78
2022/04/30 08:45:34;;;;;;;13.38;9.82;;;;;;;;;;4974820;28;20123;-78
2022/04/30 08:48:01;;;;;;;12.43;8.43;;;;;;;;;;4974402;28;20026;-78
2022/04/30 08:50:29;;;;;;;14.63;10.73;;;;;;;;;;4974758;28;20058;-79
2022/04/30 08:52:57;;;;;;;13.30;9.95;;;;;;;;;;4974878;28;20023;-78
2022/04/30 08:55:23;;;;;;;11.82;8.40;;;;;;;;;;4974758;28;20023;-78
2022/04/30 08:57:49;;;;;;;13.02;10.45;;;;;;;;;;4973889;28;20069;-79
2022/04/30 09:00:15;;;;;;;14.48;10.52;;;;;;;;;;4975706;28;20027;-80
2022/04/30 09:02:55;;;;;;;15.60;10.93;;;;;;;;;;4976295;28;20019;-80
2022/04/30 09:05:22;;;;;;;14.93;9.30;;;;;;;;;;4974676;28;20464;-78
2022/04/30 09:07:58;;;;;;;13.45;10.52;;;;;;;;;;4974562;28;20109;-79
2022/04/30 09:10:25;;;;;;;13.52;10.68;;;;;;;;;;4973084;28;20031;-79
2022/04/30 09:12:52;;;;;;;13.63;10.60;;;;;;;;;;4974429;28;20027;-77
2022/04/30 09:15:18;;;;;;;14.88;10.07;;;;;;;;;;4972390;28;20037;-78
2022/04/30 09:17:57;;;;;;;12.88;9.82;;;;;;;;;;4972880;28;20054;-76
2022/04/30 09:20:24;;;;;;;13.70;9.50;;;;;;;;;;4972946;28;20027;-78
2022/04/30 09:22:50;;;;;;;15.57;11.55;;;;;;;;;;4972642;28;20022;-79
2022/04/30 09:25:16;;;;;;;13.63;9.75;;;;;;;;;;4973844;28;20397;-78
2022/04/30 09:27:48;;;;;;;11.50;9.68;;;;;;;;;;4973501;28;20023;-78
2022/04/30 09:30:15;;;;;;;17.13;10.30;;;;;;;;;;4974582;28;20018;-77
2022/04/30 09:32:41;;;;;;;12.18;8.85;;;;;;;;;;4990647;28;20029;-77
2022/04/30 09:38:02;;;;;;;14.95;10.30;;;;;;;;;;4974694;28;20057;-78
2022/04/30 09:40:28;;;;;;;15.68;12.00;;;;;;;;;;4974736;28;20081;-78
2022/04/30 09:42:54;;;;;;;10.95;8.43;;;;;;;;;;4974466;28;20062;-78
2022/04/30 09:45:31;;;;;;;11.32;8.65;;;;;;;;;;4973713;28;20018;-78
2022/04/30 09:47:58;;;;;;;10.40;8.10;;;;;;;;;;4974346;28;20031;-79
2022/04/30 09:55:55;;;;;;;9.00;7.47;;;;;;;;;;4975216;28;20057;-79
2022/04/30 09:58:24;;;;;;;11.35;7.97;;;;;;;;;;4974672;28;20023;-77
2022/04/30 10:00:51;;;;;;;10.85;7.90;;;;;;;;;;4973408;28;20122;-76
2022/04/30 10:03:17;;;;;;;7.57;6.30;;;;;;;;;;4974521;28;20026;-77
2022/04/30 10:05:44;;;;;;;8.23;6.22;;;;;;;;;;4972693;28;20058;-77
2022/04/30 10:08:10;;;;;;;8.45;6.53;;;;;;;;;;4988061;28;20113;-80
2022/04/30 10:10:47;;;;;;;9.43;6.90;;;;;;;;;;4972163;28;20038;-77
2022/04/30 10:13:21;;;;;;;8.35;6.50;;;;;;;;;;4972948;28;20152;-80
2022/04/30 10:15:51;;;;;;;11.02;7.45;;;;;;;;;;4972672;28;20090;-79
2022/04/30 10:18:18;;;;;;;7.72;6.60;;;;;;;;;;4973280;28;20058;-77
2022/04/30 10:20:52;;;;;;;11.25;6.53;;;;;;;;;;4973265;28;20069;-78
2022/04/30 10:23:18;;;;;;;7.38;6.30;;;;;;;;;;4973444;28;20089;-79
2022/04/30 10:25:46;;;;;;;8.48;6.68;;;;;;;;;;4973201;28;20033;-79
2022/04/30 10:28:15;;;;;;;12.13;7.00;;;;;;;;;;4971284;28;20141;-76
2022/04/30 10:30:42;;;;;;;8.80;6.20;;;;;;;;;;4974177;28;20023;-79
2022/04/30 10:33:09;;;;;;;8.48;6.40;;;;;;;;;;4973641;28;20086;-76
2022/04/30 10:35:36;;;;;;;12.10;6.85;;;;;;;;;;4973679;28;20039;-76
2022/04/30 10:38:06;;;;;;;8.77;5.50;;;;;;;;;;4973200;28;20110;-79
2022/04/30 10:40:41;;;;;;;7.97;5.53;;;;;;;;;;4972815;28;20054;-78
2022/04/30 10:43:14;;;;;;;8.57;6.20;;;;;;;;;;4987834;28;20053;-79
2022/04/30 10:45:40;;;;;;;11.75;6.88;;;;;;;;;;4973693;28;20023;-78
2022/04/30 10:48:06;;;;;;;9.82;6.80;;;;;;;;;;4973637;28;20107;-76
2022/04/30 10:50:32;;;;;;;7.65;5.72;;;;;;;;;;4972461;28;20030;-77
2022/04/30 10:53:00;;;;;;;7.90;5.72;;;;;;;;;;4970134;28;20027;-77
2022/04/30 10:55:27;;;;;;;6.90;5.35;;;;;;;;;;4972912;28;20026;-79
2022/04/30 10:57:53;;;;;;;12.15;5.60;;;;;;;;;;4972678;28;20018;-78
2022/04/30 11:00:22;;;;;;;10.80;6.65;;;;;;;;;;4972223;28;20067;-78
2022/04/30 11:02:49;;;;;;;10.02;6.57;;;;;;;;;;4973388;28;20030;-77
2022/04/30 11:05:19;;;;;;;12.38;9.32;;;;;;;;;;4971852;28;20470;-77
2022/04/30 11:07:46;;;;;;;11.30;8.57;;;;;;;;;;4971385;28;20029;-77
2022/04/30 11:10:12;;;;;;;7.88;6.43;;;;;;;;;;4970375;28;20466;-77
2022/04/30 11:12:38;;;;;;;10.25;7.75;;;;;;;;;;4972300;28;20102;-81
2022/04/30 11:15:04;;;;;;;8.63;5.28;;;;;;;;;;4971469;28;20057;-78
2022/04/30 11:17:31;;;;;;;7.95;6.28;;;;;;;;;;4969957;28;20046;-78
2022/04/30 11:19:57;;;;;;;7.85;5.35;;;;;;;;;;4970040;28;20023;-77
2022/04/30 11:22:23;;;;;;;7.10;5.65;;;;;;;;;;4969919;28;20027;-78
2022/04/30 11:24:50;;;;;;;8.15;6.32;;;;;;;;;;4973088;28;20445;-76
2022/04/30 11:27:16;;;;;;;8.52;6.07;;;;;;;;;;4972758;28;20022;-77
2022/04/30 11:29:49;;;;;;;8.25;5.38;;;;;;;;;;4971750;28;20495;-76
2022/04/30 11:32:15;;;;;;;;;;;;;;;;;;4972141;28;20037;-77
2022/04/30 11:34:41;;;;;;;8.07;5.95;;;;;;;;;;4987959;28;19906;-76
2022/04/30 11:37:09;;;;;;;7.10;4.40;;;;;;;;;;4971458;28;20035;-76
2022/04/30 11:39:35;;;;;;;10.73;5.75;;;;;;;;;;4970559;28;20658;-81
2022/04/30 11:42:01;;;;;;;7.60;5.57;;;;;;;;;;4973027;28;20027;-80
2022/04/30 11:44:28;;;;;;;6.90;4.82;;;;;;;;;;4971102;28;20031;-76
2022/04/30 11:46:54;;;;;;;6.43;5.00;;;;;;;;;;4972762;28;20026;-78
2022/04/30 11:49:22;;;;;;;9.48;4.82;;;;;;;;;;4973175;28;20022;-78
2022/04/30 11:51:49;;;;;;;6.07;4.80;;;;;;;;;;4972861;28;20023;-79
2022/04/30 11:54:16;;;;;;;7.65;5.35;;;;;;;;;;4972477;28;20078;-78
2022/04/30 11:56:43;;;;;;;6.05;4.63;;;;;;;;;;4987811;28;20093;-78
2022/04/30 11:59:09;;;;;;;5.20;3.95;;;;;;;;;;4984446;28;20031;-77
2022/04/30 12:01:38;;;;;;;6.40;3.88;;;;;;;;;;4983267;28;20119;-76
2022/04/30 12:04:05;;;;;;;6.90;4.07;;;;;;;;;;4953851;28;20023;-79
2022/04/30 12:06:31;;;;;;;4.93;3.88;;;;;;;;;;4951931;28;20019;-77
2022/04/30 12:08:57;;;;;;;4.07;3.50;;;;;;;;;;4960817;28;20062;-76
2022/04/30 12:11:24;;;;;;;5.70;3.95;;;;;;;;;;4986478;28;20027;-78
2022/04/30 12:14:00;;;;;;;7.32;5.60;;;;;;;;;;4984312;28;20090;-76
2022/04/30 12:16:33;;;;;;;4.63;3.38;;;;;;;;;;4982587;28;20075;-76
2022/04/30 12:24:43;;;;;;;4.55;3.58;;;;;;;;;;4955945;28;20039;-77
2022/04/30 12:27:10;;;;;;;6.18;4.53;;;;;;;;;;4973157;28;20022;-77
2022/04/30 12:29:37;;;;;;;6.72;4.90;;;;;;;;;;4974040;28;20019;-77
2022/04/30 12:32:03;;;;;;;4.15;3.45;;;;;;;;;;4974934;28;20027;-77
2022/04/30 12:34:36;;;;;;;3.72;2.58;;;;;;;;;;4975091;28;20022;-77
2022/04/30 12:37:02;;;;;;;4.28;3.60;;;;;;;;;;4972686;28;20046;-77
2022/04/30 12:39:28;;;;;;;3.75;2.97;;;;;;;;;;4974863;28;20363;-75
2022/04/30 12:41:57;;;;;;;4.85;3.78;;;;;;;;;;4974804;28;20026;-76
2022/04/30 12:44:24;;;;;;;5.57;2.85;;;;;;;;;;4972918;28;20106;-79
2022/04/30 12:46:50;;;;;;;5.90;3.58;;;;;;;;;;4974671;28;20482;-77
2022/04/30 12:49:17;;;;;;;6.82;3.30;;;;;;;;;;4973228;28;20082;-78
2022/04/30 12:51:44;;;;;;;6.10;3.60;;;;;;;;;;4968941;28;20105;-77
2022/04/30 12:54:12;;;;;;;3.88;2.63;;;;;;;;;;4972251;28;20106;-77
2022/04/30 12:56:39;;;;;;;4.53;3.28;;;;;;;;;;4988151;28;20097;-79
2022/04/30 12:59:05;;;;;;;5.65;3.80;;;;;;;;;;4973338;28;20023;-77
2022/04/30 13:01:33;;;;;;;5.07;3.40;;;;;;;;;;4971426;28;20024;-76
2022/04/30 13:03:59;;;;;;;5.18;4.65;;;;;;;;;;4974320;28;20449;-78
2022/04/30 13:06:25;;;;;;;6.75;6.07;;;;;;;;;;4973173;28;20019;-79
2022/04/30 13:14:21;;;;;;;5.85;2.97;;;;;;;;;;4985222;28;20089;-76
2022/04/30 13:16:48;;;;;;;5.55;3.30;;;;;;;;;;4981867;28;20058;-76
2022/04/30 13:19:15;;;;;;;5.78;3.35;;;;;;;;;;4974821;28;20417;-77
2022/04/30 13:21:41;;;;;;;4.90;3.55;;;;;;;;;;4974420;28;20023;-76
2022/04/30 13:24:08;;;;;;;4.45;3.28;;;;;;;;;;4974439;28;20470;-80
2022/04/30 13:26:34;;;;;;;7.10;5.05;;;;;;;;;;4973442;28;20043;-78
2022/04/30 13:29:00;;;;;;;5.97;3.15;;;;;;;;;;4969192;28;20057;-79
2022/04/30 13:31:26;;;;;;;4.53;3.30;;;;;;;;;;4969962;28;20114;-76
2022/04/30 13:33:52;;;;;;;5.80;3.13;;;;;;;;;;4954532;28;20031;-76
2022/04/30 13:36:20;;;;;;;4.47;3.55;;;;;;;;;;4962652;28;20122;-75
2022/04/30 13:38:46;;;;;;;4.80;3.00;;;;;;;;;;4974377;28;20101;-77
2022/04/30 13:41:12;;;;;;;7.82;3.75;;;;;;;;;;4967217;28;20470;-76
2022/04/30 13:43:38;;;;;;;10.88;4.13;;;;;;;;;;4955694;28;20050;-76
2022/04/30 13:46:04;;;;;;;4.50;3.40;;;;;;;;;;4955865;28;20019;-79
2022/04/30 13:48:31;;;;;;;8.13;4.00;;;;;;;;;;4967538;28;20027;-78
2022/04/30 13:50:57;;;;;;;6.18;4.68;;;;;;;;;;4972075;28;20058;-77
2022/04/30 13:53:24;;;;;;;5.05;4.40;;;;;;;;;;4974384;28;20019;-78
2022/04/30 13:55:50;;;;;;;4.65;3.45;;;;;;;;;;4974214;28;20125;-78
2022/04/30 13:58:16;;;;;;;7.43;4.10;;;;;;;;;;4974157;28;20090;-76
2022/04/30 14:00:42;;;;;;;8.68;6.18;;;;;;;;;;4988170;28;20027;-77
2022/04/30 14:03:08;;;;;;;7.38;4.90;;;;;;;;;;4971732;28;20031;-76
2022/04/30 14:05:34;;;;;;;5.30;4.57;;;;;;;;;;4982442;28;20026;-77
2022/04/30 14:08:01;;;;;;;6.65;4.78;;;;;;;;;;4970579;28;20035;-76
2022/04/30 14:10:28;;;;;;;4.13;3.35;;;;;;;;;;4973393;28;20022;-77
2022/04/30 14:12:54;;;;;;;5.63;3.90;;;;;;;;;;4973953;28;20019;-76
2022/04/30 14:15:21;;;;;;;14.02;4.80;;;;;;;;;;4973440;28;20023;-77
2022/04/30 14:20:33;;;;;;;8.48;6.32;;;;;;;;;;4973523;28;20375;-76
2022/04/30 14:23:00;;;;;;;4.65;4.05;;;;;;;;;;4973455;28;20074;-76
2022/04/30 14:25:28;;;;;;;4.40;3.85;;;;;;;;;;4973584;28;20026;-78
2022/04/30 14:27:55;;;;;;;6.13;5.45;;;;;;;;;;4977697;28;20030;-76
2022/04/30 14:30:21;;;;;;;9.70;6.15;;;;;;;;;;4972161;28;20053;-76
2022/04/30 14:32:48;;;;;;;8.95;6.90;;;;;;;;;;4988114;28;20022;-78
2022/04/30 14:35:14;;;;;;;6.97;6.22;;;;;;;;;;4989164;28;20022;-76
2022/04/30 14:37:40;;;;;;;8.32;6.75;;;;;;;;;;4988617;28;20166;-76
2022/04/30 14:40:07;;;;;;;9.15;6.95;;;;;;;;;;4974104;28;20030;-77
2022/04/30 14:42:33;;;;;;;15.43;13.77;;;;;;;;;;4973901;28;20034;-76
2022/04/30 14:44:59;;;;;;;6.10;4.20;;;;;;;;;;4973231;28;20022;-77
2022/04/30 14:47:28;;;;;;;9.18;6.03;;;;;;;;;;4989105;28;20019;-78
2022/04/30 14:49:55;;;;;;;11.65;8.68;;;;;;;;;;4974052;28;20077;-78
2022/04/30 14:52:22;;;;;;;9.10;5.95;;;;;;;;;;4989436;28;20027;-78
2022/04/30 14:54:48;;;;;;;4.57;3.83;;;;;;;;;;4989499;28;20434;-80
2022/04/30 14:57:14;;;;;;;8.63;6.88;;;;;;;;;;4989730;28;20030;-82
2022/04/30 14:59:40;;;;;;;6.65;5.20;;;;;;;;;;4990054;28;20034;-81
2022/04/30 15:02:07;;;;;;;8.35;6.72;;;;;;;;;;4990034;28;20225;-82
2022/04/30 15:04:33;;;;;;;5.47;3.75;;;;;;;;;;4974085;28;20030;-81
2022/04/30 15:06:59;;;;;;;5.78;4.53;;;;;;;;;;4974749;28;20078;-80
2022/04/30 15:09:28;;;;;;;54.65;44.70;;;;;;;;;;4989241;28;20110;-79